Terminal Aerodrome Forecast
Issued by NWS

Home | Current Version | Previous Version | Text Only | Print | Product List | Glossary On
Versions: 1 2 3 4 5 6 7 8 9 10 11 12 13
216
FTUS42 TJSJ 181601 AAA
TAFNCM
TAF AMD
TNCM 181601Z 1816/1912 04012KT P6SM SCT022
     FM182000 05009KT P6SM FEW020=

USA.gov is the U.S. government's official web portal to all federal, state and local government web resources and services.